sensor_id;sensor_type;location;lat;lon;timestamp;pressure;altitude;pressure_sealevel;temperature;humidity
85331;BME280;75738;44.496;11.344;2024-01-27T00:00:34;102040.24;;;9.20;63.77
85331;BME280;75738;44.496;11.344;2024-01-27T00:03:01;102030.05;;;9.14;63.89
85331;BME280;75738;44.496;11.344;2024-01-27T00:05:29;102029.81;;;9.12;63.91
85331;BME280;75738;44.496;11.344;2024-01-27T00:07:56;102024.99;;;9.11;63.90
85331;BME280;75738;44.496;11.344;2024-01-27T00:10:24;102021.38;;;9.12;63.66
85331;BME280;75738;44.496;11.344;2024-01-27T00:12:51;102017.48;;;9.11;63.58
85331;BME280;75738;44.496;11.344;2024-01-27T00:15:19;102022.22;;;9.18;63.36
85331;BME280;75738;44.496;11.344;2024-01-27T00:17:46;102028.98;;;9.11;63.61
85331;BME280;75738;44.496;11.344;2024-01-27T00:20:14;102036.20;;;9.03;63.77
85331;BME280;75738;44.496;11.344;2024-01-27T00:22:41;102032.31;;;9.02;63.82
85331;BME280;75738;44.496;11.344;2024-01-27T00:25:09;102029.08;;;9.09;63.72
85331;BME280;75738;44.496;11.344;2024-01-27T00:27:36;102032.01;;;9.12;63.76
85331;BME280;75738;44.496;11.344;2024-01-27T00:30:04;102033.17;;;9.02;64.04
85331;BME280;75738;44.496;11.344;2024-01-27T00:32:32;102031.20;;;8.99;64.24
85331;BME280;75738;44.496;11.344;2024-01-27T00:35:00;102031.79;;;8.97;64.34
85331;BME280;75738;44.496;11.344;2024-01-27T00:37:27;102026.16;;;9.01;64.12
85331;BME280;75738;44.496;11.344;2024-01-27T00:39:55;102020.69;;;8.97;64.27
85331;BME280;75738;44.496;11.344;2024-01-27T00:42:22;102026.47;;;8.97;64.30
85331;BME280;75738;44.496;11.344;2024-01-27T00:44:50;102020.56;;;8.99;64.15
85331;BME280;75738;44.496;11.344;2024-01-27T00:47:18;102030.81;;;8.92;64.38
85331;BME280;75738;44.496;11.344;2024-01-27T00:49:45;102044.81;;;8.88;64.60
85331;BME280;75738;44.496;11.344;2024-01-27T00:52:13;102048.00;;;8.93;64.34
85331;BME280;75738;44.496;11.344;2024-01-27T00:54:40;102045.19;;;8.89;64.41
85331;BME280;75738;44.496;11.344;2024-01-27T00:57:08;102041.34;;;8.93;64.34
85331;BME280;75738;44.496;11.344;2024-01-27T00:59:35;102042.94;;;8.77;64.72
85331;BME280;75738;44.496;11.344;2024-01-27T01:02:03;102051.68;;;8.85;64.53
85331;BME280;75738;44.496;11.344;2024-01-27T01:04:30;102060.41;;;8.69;64.89
85331;BME280;75738;44.496;11.344;2024-01-27T01:06:58;102069.86;;;8.73;64.79
85331;BME280;75738;44.496;11.344;2024-01-27T01:09:25;102073.63;;;8.76;64.64
85331;BME280;75738;44.496;11.344;2024-01-27T01:11:53;102066.86;;;8.77;64.40
85331;BME280;75738;44.496;11.344;2024-01-27T01:14:21;102073.48;;;8.72;64.47
85331;BME280;75738;44.496;11.344;2024-01-27T01:16:48;102081.82;;;8.73;64.24
85331;BME280;75738;44.496;11.344;2024-01-27T01:19:16;102082.28;;;8.72;64.28
85331;BME280;75738;44.496;11.344;2024-01-27T01:21:43;102079.41;;;8.57;64.58
85331;BME280;75738;44.496;11.344;2024-01-27T01:24:10;102084.37;;;8.61;64.70
85331;BME280;75738;44.496;11.344;2024-01-27T01:26:38;102089.81;;;8.60;64.72
85331;BME280;75738;44.496;11.344;2024-01-27T01:29:05;102089.11;;;8.63;64.50
85331;BME280;75738;44.496;11.344;2024-01-27T01:31:33;102089.42;;;8.72;63.95
85331;BME280;75738;44.496;11.344;2024-01-27T01:34:00;102082.04;;;8.70;63.93
85331;BME280;75738;44.496;11.344;2024-01-27T01:36:28;102090.44;;;8.63;64.00
85331;BME280;75738;44.496;11.344;2024-01-27T01:38:55;102081.88;;;8.66;63.88
85331;BME280;75738;44.496;11.344;2024-01-27T01:41:22;102084.45;;;8.67;63.78
85331;BME280;75738;44.496;11.344;2024-01-27T01:43:50;102084.20;;;8.70;63.70
85331;BME280;75738;44.496;11.344;2024-01-27T01:46:18;102080.39;;;8.61;63.86
85331;BME280;75738;44.496;11.344;2024-01-27T01:48:45;102084.78;;;8.68;63.68
85331;BME280;75738;44.496;11.344;2024-01-27T01:51:13;102078.27;;;8.67;63.71
85331;BME280;75738;44.496;11.344;2024-01-27T01:53:40;102077.73;;;8.61;63.82
85331;BME280;75738;44.496;11.344;2024-01-27T01:56:08;102084.16;;;8.64;63.75
85331;BME280;75738;44.496;11.344;2024-01-27T01:58:36;102087.41;;;8.62;63.66
85331;BME280;75738;44.496;11.344;2024-01-27T02:01:04;102095.54;;;8.67;63.59
85331;BME280;75738;44.496;11.344;2024-01-27T02:03:31;102093.84;;;8.66;63.67
85331;BME280;75738;44.496;11.344;2024-01-27T02:05:59;102097.88;;;8.58;63.89
85331;BME280;75738;44.496;11.344;2024-01-27T02:08:26;102102.95;;;8.56;63.75
85331;BME280;75738;44.496;11.344;2024-01-27T02:10:54;102105.95;;;8.44;63.73
85331;BME280;75738;44.496;11.344;2024-01-27T02:13:22;102116.66;;;8.37;63.50
85331;BME280;75738;44.496;11.344;2024-01-27T02:15:50;102112.77;;;8.35;63.28
85331;BME280;75738;44.496;11.344;2024-01-27T02:18:18;102114.75;;;8.39;62.82
85331;BME280;75738;44.496;11.344;2024-01-27T02:20:47;102127.16;;;8.25;63.04
85331;BME280;75738;44.496;11.344;2024-01-27T02:23:14;102132.97;;;8.25;63.05
85331;BME280;75738;44.496;11.344;2024-01-27T02:25:42;102128.28;;;8.28;62.84
85331;BME280;75738;44.496;11.344;2024-01-27T02:28:09;102127.66;;;8.25;62.88
85331;BME280;75738;44.496;11.344;2024-01-27T02:30:36;102123.71;;;8.17;63.01
85331;BME280;75738;44.496;11.344;2024-01-27T02:33:04;102126.59;;;8.01;63.43
85331;BME280;75738;44.496;11.344;2024-01-27T02:35:32;102120.24;;;7.97;63.72
85331;BME280;75738;44.496;11.344;2024-01-27T02:37:59;102127.46;;;7.95;63.90
85331;BME280;75738;44.496;11.344;2024-01-27T02:40:27;102126.50;;;7.96;63.89
85331;BME280;75738;44.496;11.344;2024-01-27T02:42:54;102119.84;;;8.03;63.76
85331;BME280;75738;44.496;11.344;2024-01-27T02:45:22;102123.70;;;8.04;63.77
85331;BME280;75738;44.496;11.344;2024-01-27T02:47:49;102122.52;;;7.96;63.98
85331;BME280;75738;44.496;11.344;2024-01-27T02:50:17;102121.11;;;7.97;63.74
85331;BME280;75738;44.496;11.344;2024-01-27T02:52:45;102123.28;;;7.85;64.07
85331;BME280;75738;44.496;11.344;2024-01-27T02:55:12;102122.99;;;7.82;63.79
85331;BME280;75738;44.496;11.344;2024-01-27T02:57:41;102121.41;;;7.80;63.75
85331;BME280;75738;44.496;11.344;2024-01-27T03:00:09;102122.97;;;7.90;63.45
85331;BME280;75738;44.496;11.344;2024-01-27T03:02:37;102121.61;;;7.77;63.87
85331;BME280;75738;44.496;11.344;2024-01-27T03:05:04;102124.80;;;7.62;64.41
85331;BME280;75738;44.496;11.344;2024-01-27T03:07:32;102130.72;;;7.72;64.09
85331;BME280;75738;44.496;11.344;2024-01-27T03:09:59;102137.47;;;7.71;64.06
85331;BME280;75738;44.496;11.344;2024-01-27T03:12:27;102142.84;;;7.77;63.98
85331;BME280;75738;44.496;11.344;2024-01-27T03:14:54;102138.69;;;7.72;64.00
85331;BME280;75738;44.496;11.344;2024-01-27T03:17:22;102143.61;;;7.71;64.00
85331;BME280;75738;44.496;11.344;2024-01-27T03:19:49;102139.69;;;7.64;64.05
85331;BME280;75738;44.496;11.344;2024-01-27T03:22:17;102137.93;;;7.70;63.98
85331;BME280;75738;44.496;11.344;2024-01-27T03:24:44;102142.86;;;7.69;64.06
85331;BME280;75738;44.496;11.344;2024-01-27T03:27:11;102142.48;;;7.68;64.06
85331;BME280;75738;44.496;11.344;2024-01-27T03:29:39;102138.25;;;7.66;64.12
85331;BME280;75738;44.496;11.344;2024-01-27T03:32:06;102147.78;;;7.55;63.98
85331;BME280;75738;44.496;11.344;2024-01-27T03:34:34;102150.27;;;7.44;63.82
85331;BME280;75738;44.496;11.344;2024-01-27T03:37:01;102149.96;;;7.49;63.61
85331;BME280;75738;44.496;11.344;2024-01-27T03:39:28;102145.92;;;7.43;63.85
85331;BME280;75738;44.496;11.344;2024-01-27T03:41:56;102152.30;;;7.33;64.29
85331;BME280;75738;44.496;11.344;2024-01-27T03:44:23;102157.02;;;7.42;64.30
85331;BME280;75738;44.496;11.344;2024-01-27T03:46:51;102161.38;;;7.36;63.54
85331;BME280;75738;44.496;11.344;2024-01-27T03:49:18;102168.08;;;7.42;63.37
85331;BME280;75738;44.496;11.344;2024-01-27T03:51:45;102167.82;;;7.39;62.89
85331;BME280;75738;44.496;11.344;2024-01-27T03:54:13;102169.72;;;7.37;62.66
85331;BME280;75738;44.496;11.344;2024-01-27T03:56:41;102168.20;;;7.33;62.43
85331;BME280;75738;44.496;11.344;2024-01-27T03:59:09;102168.89;;;7.30;62.31
85331;BME280;75738;44.496;11.344;2024-01-27T04:01:37;102172.60;;;7.27;62.38
85331;BME280;75738;44.496;11.344;2024-01-27T04:04:05;102177.80;;;7.21;62.09
85331;BME280;75738;44.496;11.344;2024-01-27T04:06:40;102179.98;;;7.22;62.17
85331;BME280;75738;44.496;11.344;2024-01-27T04:09:08;102173.82;;;7.21;62.51
85331;BME280;75738;44.496;11.344;2024-01-27T04:11:36;102170.06;;;7.18;62.58
85331;BME280;75738;44.496;11.344;2024-01-27T04:14:04;102168.63;;;7.20;62.52
85331;BME280;75738;44.496;11.344;2024-01-27T04:16:32;102171.51;;;7.09;63.19
85331;BME280;75738;44.496;11.344;2024-01-27T04:18:59;102168.09;;;7.07;63.28
85331;BME280;75738;44.496;11.344;2024-01-27T04:21:27;102173.48;;;7.13;63.16
85331;BME280;75738;44.496;11.344;2024-01-27T04:23:54;102171.28;;;7.12;63.57
85331;BME280;75738;44.496;11.344;2024-01-27T04:26:22;102166.96;;;7.11;63.51
85331;BME280;75738;44.496;11.344;2024-01-27T04:28:49;102169.23;;;7.03;64.06
85331;BME280;75738;44.496;11.344;2024-01-27T04:31:17;102163.74;;;7.06;64.00
85331;BME280;75738;44.496;11.344;2024-01-27T04:33:44;102158.63;;;7.03;64.08
85331;BME280;75738;44.496;11.344;2024-01-27T04:36:12;102165.33;;;7.16;63.89
85331;BME280;75738;44.496;11.344;2024-01-27T04:38:39;102165.41;;;7.15;64.10
85331;BME280;75738;44.496;11.344;2024-01-27T04:41:06;102173.02;;;7.06;64.59
85331;BME280;75738;44.496;11.344;2024-01-27T04:43:34;102174.62;;;7.09;64.60
85331;BME280;75738;44.496;11.344;2024-01-27T04:46:01;102172.08;;;7.00;65.09
85331;BME280;75738;44.496;11.344;2024-01-27T04:48:29;102163.94;;;7.03;65.23
85331;BME280;75738;44.496;11.344;2024-01-27T04:50:56;102167.15;;;7.08;64.94
85331;BME280;75738;44.496;11.344;2024-01-27T04:53:23;102165.64;;;7.11;64.33
85331;BME280;75738;44.496;11.344;2024-01-27T04:55:51;102164.12;;;7.07;64.03
85331;BME280;75738;44.496;11.344;2024-01-27T04:58:18;102160.15;;;7.00;64.26
85331;BME280;75738;44.496;11.344;2024-01-27T05:00:46;102162.50;;;7.05;64.07
85331;BME280;75738;44.496;11.344;2024-01-27T05:03:13;102161.66;;;7.04;64.14
85331;BME280;75738;44.496;11.344;2024-01-27T05:05:41;102158.75;;;7.02;63.60
85331;BME280;75738;44.496;11.344;2024-01-27T05:08:09;102160.94;;;6.88;63.18
85331;BME280;75738;44.496;11.344;2024-01-27T05:10:37;102162.53;;;6.97;62.85
85331;BME280;75738;44.496;11.344;2024-01-27T05:13:04;102166.20;;;7.02;62.51
85331;BME280;75738;44.496;11.344;2024-01-27T05:15:31;102162.80;;;7.00;62.09
85331;BME280;75738;44.496;11.344;2024-01-27T05:17:59;102159.20;;;6.94;62.12
85331;BME280;75738;44.496;11.344;2024-01-27T05:20:26;102159.04;;;6.82;62.80
85331;BME280;75738;44.496;11.344;2024-01-27T05:22:54;102160.55;;;6.87;62.67
85331;BME280;75738;44.496;11.344;2024-01-27T05:25:21;102163.77;;;6.85;62.95
85331;BME280;75738;44.496;11.344;2024-01-27T05:27:49;102165.29;;;6.89;63.05
85331;BME280;75738;44.496;11.344;2024-01-27T05:30:17;102169.45;;;6.93;63.20
85331;BME280;75738;44.496;11.344;2024-01-27T05:32:45;102171.99;;;6.87;63.69
85331;BME280;75738;44.496;11.344;2024-01-27T05:35:12;102168.59;;;6.92;63.68
85331;BME280;75738;44.496;11.344;2024-01-27T05:37:40;102168.02;;;7.02;63.61
85331;BME280;75738;44.496;11.344;2024-01-27T05:40:08;102176.08;;;6.93;64.06
85331;BME280;75738;44.496;11.344;2024-01-27T05:42:36;102186.30;;;6.85;64.65
85331;BME280;75738;44.496;11.344;2024-01-27T05:45:06;102189.70;;;6.87;64.60
85331;BME280;75738;44.496;11.344;2024-01-27T05:47:34;102181.38;;;6.86;64.50
85331;BME280;75738;44.496;11.344;2024-01-27T05:50:01;102185.81;;;6.92;63.92
85331;BME280;75738;44.496;11.344;2024-01-27T05:52:29;102189.03;;;6.97;63.56
85331;BME280;75738;44.496;11.344;2024-01-27T05:54:56;102189.22;;;6.94;63.42
85331;BME280;75738;44.496;11.344;2024-01-27T05:57:24;102195.73;;;6.96;63.07
85331;BME280;75738;44.496;11.344;2024-01-27T05:59:51;102190.73;;;6.91;62.84
85331;BME280;75738;44.496;11.344;2024-01-27T06:02:19;102188.09;;;6.99;62.87
85331;BME280;75738;44.496;11.344;2024-01-27T06:04:46;102191.78;;;6.89;63.19
85331;BME280;75738;44.496;11.344;2024-01-27T06:07:14;102189.14;;;6.89;63.39
85331;BME280;75738;44.496;11.344;2024-01-27T06:09:41;102201.53;;;6.95;63.34
85331;BME280;75738;44.496;11.344;2024-01-27T06:12:08;102207.13;;;6.91;63.56
85331;BME280;75738;44.496;11.344;2024-01-27T06:14:36;102209.11;;;7.02;63.26
85331;BME280;75738;44.496;11.344;2024-01-27T06:17:05;102210.41;;;7.09;63.24
85331;BME280;75738;44.496;11.344;2024-01-27T06:19:32;102220.55;;;7.09;63.49
85331;BME280;75738;44.496;11.344;2024-01-27T06:21:59;102229.72;;;7.11;63.54
85331;BME280;75738;44.496;11.344;2024-01-27T06:24:27;102233.39;;;7.16;63.87
85331;BME280;75738;44.496;11.344;2024-01-27T06:26:54;102237.97;;;7.06;64.37
85331;BME280;75738;44.496;11.344;2024-01-27T06:29:22;102232.45;;;7.17;64.20
85331;BME280;75738;44.496;11.344;2024-01-27T06:31:49;102234.64;;;7.17;64.38
85331;BME280;75738;44.496;11.344;2024-01-27T06:34:17;102235.51;;;7.10;64.66
85331;BME280;75738;44.496;11.344;2024-01-27T06:36:44;102241.83;;;7.08;64.95
85331;BME280;75738;44.496;11.344;2024-01-27T06:39:12;102243.25;;;7.21;64.63
85331;BME280;75738;44.496;11.344;2024-01-27T06:41:39;102261.07;;;7.11;64.97
85331;BME280;75738;44.496;11.344;2024-01-27T06:44:06;102259.27;;;7.19;64.66
85331;BME280;75738;44.496;11.344;2024-01-27T06:46:34;102256.31;;;7.17;64.24
85331;BME280;75738;44.496;11.344;2024-01-27T06:49:01;102260.37;;;7.22;64.27
85331;BME280;75738;44.496;11.344;2024-01-27T06:51:29;102272.61;;;7.25;64.35
85331;BME280;75738;44.496;11.344;2024-01-27T06:53:56;102275.83;;;7.30;64.30
85331;BME280;75738;44.496;11.344;2024-01-27T06:56:23;102272.39;;;7.35;64.17
85331;BME280;75738;44.496;11.344;2024-01-27T06:58:51;102277.15;;;7.23;64.49
85331;BME280;75738;44.496;11.344;2024-01-27T07:01:18;102273.63;;;7.30;64.43
85331;BME280;75738;44.496;11.344;2024-01-27T07:03:46;102276.55;;;7.32;64.34
85331;BME280;75738;44.496;11.344;2024-01-27T07:06:13;102271.47;;;7.22;64.86
85331;BME280;75738;44.496;11.344;2024-01-27T07:08:41;102276.58;;;7.18;65.09
85331;BME280;75738;44.496;11.344;2024-01-27T07:11:08;102272.58;;;7.32;64.82
85331;BME280;75738;44.496;11.344;2024-01-27T07:13:36;102270.52;;;7.30;64.91
85331;BME280;75738;44.496;11.344;2024-01-27T07:16:04;102271.66;;;7.26;65.07
85331;BME280;75738;44.496;11.344;2024-01-27T07:18:32;102282.64;;;7.27;65.33
85331;BME280;75738;44.496;11.344;2024-01-27T07:21:01;102286.24;;;7.26;65.49
85331;BME280;75738;44.496;11.344;2024-01-27T07:23:29;102284.03;;;7.40;65.15
85331;BME280;75738;44.496;11.344;2024-01-27T07:25:56;102280.34;;;7.35;65.36
85331;BME280;75738;44.496;11.344;2024-01-27T07:28:25;102278.83;;;7.38;65.42
85331;BME280;75738;44.496;11.344;2024-01-27T07:30:53;102278.45;;;7.45;65.39
85331;BME280;75738;44.496;11.344;2024-01-27T07:33:20;102278.98;;;7.50;65.26
85331;BME280;75738;44.496;11.344;2024-01-27T07:35:47;102270.84;;;7.53;65.18
85331;BME280;75738;44.496;11.344;2024-01-27T07:38:15;102266.48;;;7.59;65.02
85331;BME280;75738;44.496;11.344;2024-01-27T07:40:42;102270.66;;;7.49;65.43
85331;BME280;75738;44.496;11.344;2024-01-27T07:43:10;102261.37;;;7.56;65.37
85331;BME280;75738;44.496;11.344;2024-01-27T07:45:37;102265.72;;;7.57;65.44
85331;BME280;75738;44.496;11.344;2024-01-27T07:48:05;102270.00;;;7.52;65.58
85331;BME280;75738;44.496;11.344;2024-01-27T07:50:34;102267.42;;;7.65;65.28
85331;BME280;75738;44.496;11.344;2024-01-27T07:53:01;102265.67;;;7.71;65.07
85331;BME280;75738;44.496;11.344;2024-01-27T07:55:29;102269.20;;;7.72;65.12
85331;BME280;75738;44.496;11.344;2024-01-27T07:57:56;102270.45;;;7.66;65.19
85331;BME280;75738;44.496;11.344;2024-01-27T08:00:24;102271.92;;;7.78;65.03
85331;BME280;75738;44.496;11.344;2024-01-27T08:02:51;102275.02;;;7.84;64.65
85331;BME280;75738;44.496;11.344;2024-01-27T08:05:19;102273.81;;;7.83;64.79
85331;BME280;75738;44.496;11.344;2024-01-27T08:07:46;102267.56;;;7.77;64.80
85331;BME280;75738;44.496;11.344;2024-01-27T08:10:14;102278.64;;;7.76;64.99
85331;BME280;75738;44.496;11.344;2024-01-27T08:12:41;102278.94;;;7.79;64.96
85331;BME280;75738;44.496;11.344;2024-01-27T08:15:09;102286.09;;;7.91;64.61
85331;BME280;75738;44.496;11.344;2024-01-27T08:17:36;102286.77;;;7.87;64.67
85331;BME280;75738;44.496;11.344;2024-01-27T08:20:04;102299.85;;;7.91;64.71
85331;BME280;75738;44.496;11.344;2024-01-27T08:22:32;102308.95;;;7.94;64.72
85331;BME280;75738;44.496;11.344;2024-01-27T08:24:59;102312.06;;;7.93;64.58
85331;BME280;75738;44.496;11.344;2024-01-27T08:27:27;102310.54;;;7.96;64.68
85331;BME280;75738;44.496;11.344;2024-01-27T08:29:54;102314.02;;;8.04;64.47
85331;BME280;75738;44.496;11.344;2024-01-27T08:32:22;102322.22;;;7.94;64.85
85331;BME280;75738;44.496;11.344;2024-01-27T08:34:50;102319.52;;;8.01;64.75
85331;BME280;75738;44.496;11.344;2024-01-27T08:37:19;102310.72;;;8.00;64.66
85331;BME280;75738;44.496;11.344;2024-01-27T08:39:46;102324.44;;;8.07;64.55
85331;BME280;75738;44.496;11.344;2024-01-27T08:42:14;102330.14;;;8.01;64.91
85331;BME280;75738;44.496;11.344;2024-01-27T08:44:41;102324.39;;;8.14;64.47
85331;BME280;75738;44.496;11.344;2024-01-27T08:47:09;102319.56;;;8.21;64.22
85331;BME280;75738;44.496;11.344;2024-01-27T08:49:36;102318.80;;;8.19;64.24
85331;BME280;75738;44.496;11.344;2024-01-27T08:52:04;102321.79;;;8.27;64.22
85331;BME280;75738;44.496;11.344;2024-01-27T08:54:31;102322.54;;;8.29;64.21
85331;BME280;75738;44.496;11.344;2024-01-27T08:56:59;102323.98;;;8.28;64.11
85331;BME280;75738;44.496;11.344;2024-01-27T08:59:26;102324.25;;;8.30;64.21
85331;BME280;75738;44.496;11.344;2024-01-27T09:01:53;102314.13;;;8.23;64.35
85331;BME280;75738;44.496;11.344;2024-01-27T09:04:22;102326.77;;;8.39;64.01
85331;BME280;75738;44.496;11.344;2024-01-27T09:06:49;102326.50;;;8.37;63.92
85331;BME280;75738;44.496;11.344;2024-01-27T09:09:16;102328.35;;;8.42;63.60
85331;BME280;75738;44.496;11.344;2024-01-27T09:11:44;102327.72;;;8.38;63.79
85331;BME280;75738;44.496;11.344;2024-01-27T09:14:12;102331.56;;;8.47;63.54
85331;BME280;75738;44.496;11.344;2024-01-27T09:16:40;102333.73;;;8.55;63.25
85331;BME280;75738;44.496;11.344;2024-01-27T09:19:07;102338.59;;;8.55;63.45
85331;BME280;75738;44.496;11.344;2024-01-27T09:21:35;102340.20;;;8.51;63.72
85331;BME280;75738;44.496;11.344;2024-01-27T09:24:03;102337.14;;;8.57;63.81
85331;BME280;75738;44.496;11.344;2024-01-27T09:26:30;102340.52;;;8.66;63.74
85331;BME280;75738;44.496;11.344;2024-01-27T09:28:58;102346.94;;;8.69;63.63
85331;BME280;75738;44.496;11.344;2024-01-27T09:31:25;102349.89;;;8.98;63.05
85331;BME280;75738;44.496;11.344;2024-01-27T09:33:54;102354.38;;;9.10;63.76
85331;BME280;75738;44.496;11.344;2024-01-27T09:36:22;102349.73;;;9.32;63.27
85331;BME280;75738;44.496;11.344;2024-01-27T09:38:49;102346.52;;;9.53;62.76
85331;BME280;75738;44.496;11.344;2024-01-27T09:41:18;102336.86;;;9.76;60.85
85331;BME280;75738;44.496;11.344;2024-01-27T09:43:46;102335.00;;;9.90;60.62
85331;BME280;75738;44.496;11.344;2024-01-27T09:46:17;102344.84;;;9.95;60.51
85331;BME280;75738;44.496;11.344;2024-01-27T09:48:45;102350.59;;;10.07;60.02
85331;BME280;75738;44.496;11.344;2024-01-27T09:51:13;102356.22;;;10.15;60.00
85331;BME280;75738;44.496;11.344;2024-01-27T09:53:40;102354.78;;;10.23;59.74
85331;BME280;75738;44.496;11.344;2024-01-27T09:56:09;102350.84;;;10.28;59.43
85331;BME280;75738;44.496;11.344;2024-01-27T09:58:37;102351.59;;;10.36;59.29
85331;BME280;75738;44.496;11.344;2024-01-27T10:01:04;102351.09;;;10.37;58.94
85331;BME280;75738;44.496;11.344;2024-01-27T10:03:35;102355.45;;;10.32;59.25
85331;BME280;75738;44.496;11.344;2024-01-27T10:06:03;102354.63;;;10.37;59.10
85331;BME280;75738;44.496;11.344;2024-01-27T10:08:32;102343.67;;;10.29;59.39
85331;BME280;75738;44.496;11.344;2024-01-27T10:11:00;102353.30;;;10.37;59.42
85331;BME280;75738;44.496;11.344;2024-01-27T10:13:29;102344.11;;;10.41;59.47
85331;BME280;75738;44.496;11.344;2024-01-27T10:18:29;102354.45;;;10.46;59.57
85331;BME280;75738;44.496;11.344;2024-01-27T10:20:57;102355.19;;;10.48;59.34
85331;BME280;75738;44.496;11.344;2024-01-27T10:23:25;102355.45;;;10.56;59.20
85331;BME280;75738;44.496;11.344;2024-01-27T10:25:53;102356.92;;;10.60;59.01
85331;BME280;75738;44.496;11.344;2024-01-27T10:28:20;102347.83;;;10.63;59.28
85331;BME280;75738;44.496;11.344;2024-01-27T10:30:49;102350.91;;;10.75;58.72
85331;BME280;75738;44.496;11.344;2024-01-27T10:33:16;102353.07;;;10.70;58.54
85331;BME280;75738;44.496;11.344;2024-01-27T10:35:44;102355.00;;;10.68;58.79
85331;BME280;75738;44.496;11.344;2024-01-27T10:38:11;102354.91;;;10.75;58.65
85331;BME280;75738;44.496;11.344;2024-01-27T10:40:39;102356.84;;;10.73;58.88
85331;BME280;75738;44.496;11.344;2024-01-27T10:43:08;102353.44;;;10.71;58.93
85331;BME280;75738;44.496;11.344;2024-01-27T10:45:42;102349.67;;;10.74;58.84
85331;BME280;75738;44.496;11.344;2024-01-27T10:48:07;102353.72;;;10.85;58.47
85331;BME280;75738;44.496;11.344;2024-01-27T10:50:41;102355.53;;;10.90;58.39
85331;BME280;75738;44.496;11.344;2024-01-27T10:53:14;102351.06;;;10.97;58.39
85331;BME280;75738;44.496;11.344;2024-01-27T10:55:40;102357.50;;;11.17;57.86
85331;BME280;75738;44.496;11.344;2024-01-27T10:58:11;102350.97;;;11.44;57.64
85331;BME280;75738;44.496;11.344;2024-01-27T11:00:41;102352.91;;;11.47;57.56
85331;BME280;75738;44.496;11.344;2024-01-27T11:03:11;102352.49;;;11.80;57.57
85331;BME280;75738;44.496;11.344;2024-01-27T11:05:40;102349.66;;;12.16;56.41
85331;BME280;75738;44.496;11.344;2024-01-27T11:08:09;102346.45;;;12.28;56.26
85331;BME280;75738;44.496;11.344;2024-01-27T11:10:38;102352.91;;;12.73;55.31
85331;BME280;75738;44.496;11.344;2024-01-27T11:13:08;102346.03;;;13.17;54.80
85331;BME280;75738;44.496;11.344;2024-01-27T11:15:36;102335.27;;;13.70;52.52
85331;BME280;75738;44.496;11.344;2024-01-27T11:18:04;102335.83;;;13.73;53.67
85331;BME280;75738;44.496;11.344;2024-01-27T11:20:32;102342.80;;;13.70;53.17
85331;BME280;75738;44.496;11.344;2024-01-27T11:23:13;102342.45;;;13.95;54.06
85331;BME280;75738;44.496;11.344;2024-01-27T11:25:41;102343.23;;;14.30;52.84
85331;BME280;75738;44.496;11.344;2024-01-27T11:28:12;102351.15;;;14.51;51.85
85331;BME280;75738;44.496;11.344;2024-01-27T11:30:45;102350.83;;;14.84;50.97
85331;BME280;75738;44.496;11.344;2024-01-27T11:33:13;102350.30;;;15.04;51.03
85331;BME280;75738;44.496;11.344;2024-01-27T11:35:41;102345.56;;;15.16;50.95
85331;BME280;75738;44.496;11.344;2024-01-27T11:38:09;102344.99;;;15.22;51.29
85331;BME280;75738;44.496;11.344;2024-01-27T11:40:46;102353.31;;;15.43;50.80
85331;BME280;75738;44.496;11.344;2024-01-27T11:43:15;102347.50;;;15.62;49.30
85331;BME280;75738;44.496;11.344;2024-01-27T11:45:43;102344.59;;;15.73;49.69
85331;BME280;75738;44.496;11.344;2024-01-27T11:48:10;102344.59;;;15.73;49.69
85331;BME280;75738;44.496;11.344;2024-01-27T11:50:38;102340.81;;;15.94;49.49
85331;BME280;75738;44.496;11.344;2024-01-27T11:53:06;102344.58;;;16.19;49.01
85331;BME280;75738;44.496;11.344;2024-01-27T11:55:35;102344.59;;;16.37;48.67
85331;BME280;75738;44.496;11.344;2024-01-27T11:58:03;102345.59;;;16.36;48.42
85331;BME280;75738;44.496;11.344;2024-01-27T12:00:32;102341.38;;;16.33;47.39
85331;BME280;75738;44.496;11.344;2024-01-27T12:02:59;102341.88;;;16.15;48.33
85331;BME280;75738;44.496;11.344;2024-01-27T12:05:27;102338.95;;;16.26;48.15
85331;BME280;75738;44.496;11.344;2024-01-27T12:07:55;102326.41;;;16.35;47.92
85331;BME280;75738;44.496;11.344;2024-01-27T12:10:22;102337.03;;;16.18;47.43
85331;BME280;75738;44.496;11.344;2024-01-27T12:12:50;102336.11;;;16.10;47.86
85331;BME280;75738;44.496;11.344;2024-01-27T12:15:17;102332.38;;;15.88;48.30
85331;BME280;75738;44.496;11.344;2024-01-27T12:17:51;102336.73;;;15.89;48.76
85331;BME280;75738;44.496;11.344;2024-01-27T12:20:18;102338.77;;;15.92;49.12
85331;BME280;75738;44.496;11.344;2024-01-27T12:22:46;102333.05;;;15.90;48.90
85331;BME280;75738;44.496;11.344;2024-01-27T12:25:14;102327.70;;;16.09;48.72
85331;BME280;75738;44.496;11.344;2024-01-27T12:27:41;102341.95;;;16.05;48.65
85331;BME280;75738;44.496;11.344;2024-01-27T12:30:09;102340.67;;;16.13;48.13
85331;BME280;75738;44.496;11.344;2024-01-27T12:32:37;102338.25;;;16.24;48.47
85331;BME280;75738;44.496;11.344;2024-01-27T12:35:05;102341.46;;;16.24;48.18
85331;BME280;75738;44.496;11.344;2024-01-27T12:37:34;102338.78;;;16.46;48.20
85331;BME280;75738;44.496;11.344;2024-01-27T12:40:02;102335.83;;;16.35;47.75
85331;BME280;75738;44.496;11.344;2024-01-27T12:42:29;102337.11;;;16.71;47.34
85331;BME280;75738;44.496;11.344;2024-01-27T12:44:57;102337.50;;;16.80;47.20
85331;BME280;75738;44.496;11.344;2024-01-27T12:47:24;102336.72;;;17.10;46.65
85331;BME280;75738;44.496;11.344;2024-01-27T12:49:52;102339.53;;;16.83;46.71
85331;BME280;75738;44.496;11.344;2024-01-27T12:52:20;102341.69;;;16.53;47.13